sensor_id;sensor_type;location;lat;lon;timestamp;P1;durP1;ratioP1;P2;durP2;ratioP2
18200;SDS011;9226;47.858;9.594;2022-12-16T00:01:58;22.33;;;7.93;;
18200;SDS011;9226;47.858;9.594;2022-12-16T00:04:23;16.37;;;7.73;;
18200;SDS011;9226;47.858;9.594;2022-12-16T00:06:48;16.97;;;6.90;;
18200;SDS011;9226;47.858;9.594;2022-12-16T00:09:14;22.33;;;7.77;;
18200;SDS011;9226;47.858;9.594;2022-12-16T00:11:39;23.70;;;7.80;;
18200;SDS011;9226;47.858;9.594;2022-12-16T00:14:05;21.07;;;8.23;;
18200;SDS011;9226;47.858;9.594;2022-12-16T00:16:30;19.67;;;8.67;;
18200;SDS011;9226;47.858;9.594;2022-12-16T00:18:56;20.00;;;8.13;;
18200;SDS011;9226;47.858;9.594;2022-12-16T00:21:21;22.53;;;7.67;;
18200;SDS011;9226;47.858;9.594;2022-12-16T00:23:52;23.07;;;8.13;;
18200;SDS011;9226;47.858;9.594;2022-12-16T00:26:18;18.17;;;8.00;;
18200;SDS011;9226;47.858;9.594;2022-12-16T00:28:43;21.30;;;7.87;;
18200;SDS011;9226;47.858;9.594;2022-12-16T00:31:08;19.77;;;8.00;;
18200;SDS011;9226;47.858;9.594;2022-12-16T00:33:34;21.77;;;8.20;;
18200;SDS011;9226;47.858;9.594;2022-12-16T00:35:59;20.03;;;8.50;;
18200;SDS011;9226;47.858;9.594;2022-12-16T00:38:25;22.70;;;9.27;;
18200;SDS011;9226;47.858;9.594;2022-12-16T00:40:51;25.10;;;8.40;;
18200;SDS011;9226;47.858;9.594;2022-12-16T00:43:19;20.30;;;8.67;;
18200;SDS011;9226;47.858;9.594;2022-12-16T00:45:45;19.50;;;8.63;;
18200;SDS011;9226;47.858;9.594;2022-12-16T00:48:11;22.67;;;8.63;;
18200;SDS011;9226;47.858;9.594;2022-12-16T00:50:37;21.10;;;8.47;;
18200;SDS011;9226;47.858;9.594;2022-12-16T00:53:02;22.27;;;8.70;;
18200;SDS011;9226;47.858;9.594;2022-12-16T00:58:44;24.20;;;8.57;;
18200;SDS011;9226;47.858;9.594;2022-12-16T01:01:10;21.93;;;8.27;;
18200;SDS011;9226;47.858;9.594;2022-12-16T01:03:36;21.27;;;8.47;;
18200;SDS011;9226;47.858;9.594;2022-12-16T01:06:06;22.30;;;8.07;;
18200;SDS011;9226;47.858;9.594;2022-12-16T01:08:35;17.93;;;7.90;;
18200;SDS011;9226;47.858;9.594;2022-12-16T01:11:01;19.23;;;8.33;;
18200;SDS011;9226;47.858;9.594;2022-12-16T01:13:26;23.03;;;8.80;;
18200;SDS011;9226;47.858;9.594;2022-12-16T01:15:52;21.60;;;9.23;;
18200;SDS011;9226;47.858;9.594;2022-12-16T01:18:18;20.17;;;8.80;;
18200;SDS011;9226;47.858;9.594;2022-12-16T01:20:43;24.50;;;9.33;;
18200;SDS011;9226;47.858;9.594;2022-12-16T01:23:09;22.33;;;8.90;;
18200;SDS011;9226;47.858;9.594;2022-12-16T01:25:34;21.50;;;8.70;;
18200;SDS011;9226;47.858;9.594;2022-12-16T01:28:00;21.63;;;8.37;;
18200;SDS011;9226;47.858;9.594;2022-12-16T01:30:25;22.80;;;9.10;;
18200;SDS011;9226;47.858;9.594;2022-12-16T01:32:51;27.63;;;10.90;;
18200;SDS011;9226;47.858;9.594;2022-12-16T01:35:16;22.90;;;8.93;;
18200;SDS011;9226;47.858;9.594;2022-12-16T01:37:42;22.47;;;9.07;;
18200;SDS011;9226;47.858;9.594;2022-12-16T01:40:08;27.07;;;10.27;;
18200;SDS011;9226;47.858;9.594;2022-12-16T01:42:42;27.70;;;10.20;;
18200;SDS011;9226;47.858;9.594;2022-12-16T01:47:50;24.20;;;10.17;;
18200;SDS011;9226;47.858;9.594;2022-12-16T01:50:17;24.60;;;9.90;;
18200;SDS011;9226;47.858;9.594;2022-12-16T01:52:45;26.73;;;9.97;;
18200;SDS011;9226;47.858;9.594;2022-12-16T01:55:17;23.03;;;9.00;;
18200;SDS011;9226;47.858;9.594;2022-12-16T01:57:48;26.73;;;9.97;;
18200;SDS011;9226;47.858;9.594;2022-12-16T02:00:26;26.17;;;10.47;;
18200;SDS011;9226;47.858;9.594;2022-12-16T02:02:51;27.73;;;10.00;;
18200;SDS011;9226;47.858;9.594;2022-12-16T02:05:18;23.20;;;9.27;;
18200;SDS011;9226;47.858;9.594;2022-12-16T02:29:07;26.77;;;10.43;;
18200;SDS011;9226;47.858;9.594;2022-12-16T02:34:50;30.60;;;11.10;;
18200;SDS011;9226;47.858;9.594;2022-12-16T02:40:06;28.67;;;10.57;;
18200;SDS011;9226;47.858;9.594;2022-12-16T02:42:41;27.33;;;10.67;;
18200;SDS011;9226;47.858;9.594;2022-12-16T02:45:27;25.90;;;10.57;;
18200;SDS011;9226;47.858;9.594;2022-12-16T02:47:55;25.97;;;9.63;;
18200;SDS011;9226;47.858;9.594;2022-12-16T02:53:09;29.00;;;9.83;;
18200;SDS011;9226;47.858;9.594;2022-12-16T02:55:59;28.07;;;9.53;;
18200;SDS011;9226;47.858;9.594;2022-12-16T02:58:35;27.87;;;9.10;;
18200;SDS011;9226;47.858;9.594;2022-12-16T03:01:16;26.07;;;10.47;;
18200;SDS011;9226;47.858;9.594;2022-12-16T03:04:30;30.17;;;10.60;;
18200;SDS011;9226;47.858;9.594;2022-12-16T03:06:35;28.70;;;9.47;;
18200;SDS011;9226;47.858;9.594;2022-12-16T03:09:08;29.83;;;10.07;;
18200;SDS011;9226;47.858;9.594;2022-12-16T03:11:37;22.97;;;10.13;;
18200;SDS011;9226;47.858;9.594;2022-12-16T03:14:07;30.33;;;10.77;;
18200;SDS011;9226;47.858;9.594;2022-12-16T03:16:37;28.40;;;10.53;;
18200;SDS011;9226;47.858;9.594;2022-12-16T03:19:04;27.33;;;9.87;;
18200;SDS011;9226;47.858;9.594;2022-12-16T03:21:35;26.67;;;10.73;;
18200;SDS011;9226;47.858;9.594;2022-12-16T03:24:10;27.23;;;10.70;;
18200;SDS011;9226;47.858;9.594;2022-12-16T03:26:39;26.20;;;11.60;;
18200;SDS011;9226;47.858;9.594;2022-12-16T03:29:08;28.07;;;10.90;;
18200;SDS011;9226;47.858;9.594;2022-12-16T03:31:57;26.20;;;10.10;;
18200;SDS011;9226;47.858;9.594;2022-12-16T03:37:21;27.83;;;10.37;;
18200;SDS011;9226;47.858;9.594;2022-12-16T03:39:53;31.03;;;10.87;;
18200;SDS011;9226;47.858;9.594;2022-12-16T03:42:21;26.87;;;10.20;;
18200;SDS011;9226;47.858;9.594;2022-12-16T03:44:48;26.10;;;10.37;;
18200;SDS011;9226;47.858;9.594;2022-12-16T03:47:14;27.80;;;10.73;;
18200;SDS011;9226;47.858;9.594;2022-12-16T03:49:39;27.37;;;10.30;;
18200;SDS011;9226;47.858;9.594;2022-12-16T03:52:05;27.60;;;10.80;;
18200;SDS011;9226;47.858;9.594;2022-12-16T03:54:30;28.33;;;10.53;;
18200;SDS011;9226;47.858;9.594;2022-12-16T03:56:56;23.93;;;9.80;;
18200;SDS011;9226;47.858;9.594;2022-12-16T03:59:24;30.87;;;10.97;;
18200;SDS011;9226;47.858;9.594;2022-12-16T04:01:50;25.60;;;10.67;;
18200;SDS011;9226;47.858;9.594;2022-12-16T04:04:16;24.23;;;9.73;;
18200;SDS011;9226;47.858;9.594;2022-12-16T04:06:42;29.47;;;10.53;;
18200;SDS011;9226;47.858;9.594;2022-12-16T04:09:07;31.40;;;11.03;;
18200;SDS011;9226;47.858;9.594;2022-12-16T04:11:33;27.60;;;10.13;;
18200;SDS011;9226;47.858;9.594;2022-12-16T04:14:17;28.57;;;10.67;;
18200;SDS011;9226;47.858;9.594;2022-12-16T04:17:01;30.60;;;11.37;;
18200;SDS011;9226;47.858;9.594;2022-12-16T04:19:46;30.30;;;11.00;;
18200;SDS011;9226;47.858;9.594;2022-12-16T04:22:32;30.17;;;11.70;;
18200;SDS011;9226;47.858;9.594;2022-12-16T04:25:28;27.80;;;10.27;;
18200;SDS011;9226;47.858;9.594;2022-12-16T04:27:56;25.63;;;10.13;;
18200;SDS011;9226;47.858;9.594;2022-12-16T04:30:23;28.00;;;10.47;;
18200;SDS011;9226;47.858;9.594;2022-12-16T04:32:57;32.33;;;11.97;;
18200;SDS011;9226;47.858;9.594;2022-12-16T04:35:43;31.10;;;11.27;;
18200;SDS011;9226;47.858;9.594;2022-12-16T04:38:28;33.53;;;12.50;;
18200;SDS011;9226;47.858;9.594;2022-12-16T04:41:12;31.60;;;12.93;;
18200;SDS011;9226;47.858;9.594;2022-12-16T04:43:56;33.03;;;12.23;;
18200;SDS011;9226;47.858;9.594;2022-12-16T04:46:40;30.93;;;11.93;;
18200;SDS011;9226;47.858;9.594;2022-12-16T04:49:23;36.57;;;13.17;;
18200;SDS011;9226;47.858;9.594;2022-12-16T04:52:07;33.13;;;11.47;;
18200;SDS011;9226;47.858;9.594;2022-12-16T04:55:09;31.33;;;12.37;;
18200;SDS011;9226;47.858;9.594;2022-12-16T04:57:55;34.33;;;13.33;;
18200;SDS011;9226;47.858;9.594;2022-12-16T05:00:40;34.13;;;13.17;;
18200;SDS011;9226;47.858;9.594;2022-12-16T05:03:25;35.60;;;13.63;;
18200;SDS011;9226;47.858;9.594;2022-12-16T05:06:10;36.33;;;13.60;;
18200;SDS011;9226;47.858;9.594;2022-12-16T05:08:55;40.47;;;15.07;;
18200;SDS011;9226;47.858;9.594;2022-12-16T05:11:39;40.40;;;15.63;;
18200;SDS011;9226;47.858;9.594;2022-12-16T05:14:23;33.40;;;13.40;;
18200;SDS011;9226;47.858;9.594;2022-12-16T05:17:07;38.97;;;14.97;;
18200;SDS011;9226;47.858;9.594;2022-12-16T05:19:51;40.40;;;14.23;;
18200;SDS011;9226;47.858;9.594;2022-12-16T05:22:35;42.97;;;14.93;;
18200;SDS011;9226;47.858;9.594;2022-12-16T05:25:19;37.93;;;12.70;;
18200;SDS011;9226;47.858;9.594;2022-12-16T05:28:04;37.87;;;13.53;;
18200;SDS011;9226;47.858;9.594;2022-12-16T05:30:48;44.07;;;14.60;;
18200;SDS011;9226;47.858;9.594;2022-12-16T05:33:32;40.40;;;14.90;;
18200;SDS011;9226;47.858;9.594;2022-12-16T05:36:16;46.53;;;15.73;;
18200;SDS011;9226;47.858;9.594;2022-12-16T05:39:01;42.37;;;14.10;;
18200;SDS011;9226;47.858;9.594;2022-12-16T05:41:45;40.67;;;14.77;;
18200;SDS011;9226;47.858;9.594;2022-12-16T05:44:29;39.67;;;15.83;;
18200;SDS011;9226;47.858;9.594;2022-12-16T05:47:13;41.07;;;14.53;;
18200;SDS011;9226;47.858;9.594;2022-12-16T05:49:57;37.50;;;14.63;;
18200;SDS011;9226;47.858;9.594;2022-12-16T05:52:46;43.57;;;14.97;;
18200;SDS011;9226;47.858;9.594;2022-12-16T05:55:31;44.57;;;15.27;;
18200;SDS011;9226;47.858;9.594;2022-12-16T05:58:15;41.67;;;14.70;;
18200;SDS011;9226;47.858;9.594;2022-12-16T06:00:59;43.47;;;14.53;;
18200;SDS011;9226;47.858;9.594;2022-12-16T06:03:43;39.63;;;14.90;;
18200;SDS011;9226;47.858;9.594;2022-12-16T06:06:27;38.90;;;14.77;;
18200;SDS011;9226;47.858;9.594;2022-12-16T06:09:11;44.37;;;15.40;;
18200;SDS011;9226;47.858;9.594;2022-12-16T06:11:54;42.17;;;15.90;;
18200;SDS011;9226;47.858;9.594;2022-12-16T06:14:38;38.33;;;14.20;;
18200;SDS011;9226;47.858;9.594;2022-12-16T06:17:22;40.03;;;15.23;;
18200;SDS011;9226;47.858;9.594;2022-12-16T06:20:06;50.67;;;16.30;;
18200;SDS011;9226;47.858;9.594;2022-12-16T06:22:53;41.03;;;15.00;;
18200;SDS011;9226;47.858;9.594;2022-12-16T06:25:38;41.93;;;13.70;;
18200;SDS011;9226;47.858;9.594;2022-12-16T06:28:22;38.47;;;14.53;;
18200;SDS011;9226;47.858;9.594;2022-12-16T06:31:07;39.23;;;14.10;;
18200;SDS011;9226;47.858;9.594;2022-12-16T06:33:51;41.67;;;14.87;;
18200;SDS011;9226;47.858;9.594;2022-12-16T06:36:35;34.07;;;12.77;;
18200;SDS011;9226;47.858;9.594;2022-12-16T06:39:19;40.17;;;14.20;;
18200;SDS011;9226;47.858;9.594;2022-12-16T06:42:03;40.03;;;14.33;;
18200;SDS011;9226;47.858;9.594;2022-12-16T06:44:47;36.30;;;13.97;;
18200;SDS011;9226;47.858;9.594;2022-12-16T06:47:31;37.03;;;12.57;;
18200;SDS011;9226;47.858;9.594;2022-12-16T06:50:15;42.17;;;14.47;;
18200;SDS011;9226;47.858;9.594;2022-12-16T06:52:59;37.33;;;13.77;;
18200;SDS011;9226;47.858;9.594;2022-12-16T06:55:43;41.13;;;14.30;;
18200;SDS011;9226;47.858;9.594;2022-12-16T06:58:28;37.87;;;13.30;;
18200;SDS011;9226;47.858;9.594;2022-12-16T07:01:12;44.57;;;15.40;;
18200;SDS011;9226;47.858;9.594;2022-12-16T07:03:56;43.37;;;15.07;;
18200;SDS011;9226;47.858;9.594;2022-12-16T07:06:41;40.30;;;14.07;;
18200;SDS011;9226;47.858;9.594;2022-12-16T07:09:25;43.20;;;14.83;;
18200;SDS011;9226;47.858;9.594;2022-12-16T07:12:09;36.40;;;14.50;;
18200;SDS011;9226;47.858;9.594;2022-12-16T07:14:53;37.20;;;14.23;;
18200;SDS011;9226;47.858;9.594;2022-12-16T07:17:38;44.50;;;16.17;;
18200;SDS011;9226;47.858;9.594;2022-12-16T07:20:23;40.20;;;14.80;;
18200;SDS011;9226;47.858;9.594;2022-12-16T07:23:07;42.13;;;16.17;;
18200;SDS011;9226;47.858;9.594;2022-12-16T07:25:51;41.93;;;15.47;;
18200;SDS011;9226;47.858;9.594;2022-12-16T07:28:35;38.73;;;14.87;;
18200;SDS011;9226;47.858;9.594;2022-12-16T07:31:19;34.87;;;13.17;;
18200;SDS011;9226;47.858;9.594;2022-12-16T07:34:03;36.03;;;14.17;;
18200;SDS011;9226;47.858;9.594;2022-12-16T07:36:47;35.90;;;12.90;;
18200;SDS011;9226;47.858;9.594;2022-12-16T07:39:31;36.37;;;12.57;;
18200;SDS011;9226;47.858;9.594;2022-12-16T07:42:15;34.70;;;13.10;;
18200;SDS011;9226;47.858;9.594;2022-12-16T07:45:00;36.03;;;13.23;;
18200;SDS011;9226;47.858;9.594;2022-12-16T07:47:47;39.97;;;13.90;;
18200;SDS011;9226;47.858;9.594;2022-12-16T07:50:31;39.47;;;14.87;;
18200;SDS011;9226;47.858;9.594;2022-12-16T07:53:15;34.60;;;13.37;;
18200;SDS011;9226;47.858;9.594;2022-12-16T07:55:59;34.93;;;13.77;;
18200;SDS011;9226;47.858;9.594;2022-12-16T07:58:43;37.07;;;13.93;;
18200;SDS011;9226;47.858;9.594;2022-12-16T08:01:28;36.57;;;13.93;;
18200;SDS011;9226;47.858;9.594;2022-12-16T08:04:12;35.67;;;13.77;;
18200;SDS011;9226;47.858;9.594;2022-12-16T08:06:56;39.07;;;14.50;;
18200;SDS011;9226;47.858;9.594;2022-12-16T08:09:40;44.40;;;15.87;;
18200;SDS011;9226;47.858;9.594;2022-12-16T08:12:24;44.10;;;15.73;;
18200;SDS011;9226;47.858;9.594;2022-12-16T08:15:08;43.57;;;14.93;;
18200;SDS011;9226;47.858;9.594;2022-12-16T08:17:52;39.93;;;16.17;;
18200;SDS011;9226;47.858;9.594;2022-12-16T08:20:36;39.13;;;15.07;;
18200;SDS011;9226;47.858;9.594;2022-12-16T08:23:20;38.03;;;14.23;;
18200;SDS011;9226;47.858;9.594;2022-12-16T08:26:04;38.93;;;15.07;;
18200;SDS011;9226;47.858;9.594;2022-12-16T08:28:49;38.83;;;14.73;;
18200;SDS011;9226;47.858;9.594;2022-12-16T08:31:33;38.33;;;14.03;;
18200;SDS011;9226;47.858;9.594;2022-12-16T08:34:18;37.97;;;13.10;;
18200;SDS011;9226;47.858;9.594;2022-12-16T08:37:02;31.13;;;12.90;;
18200;SDS011;9226;47.858;9.594;2022-12-16T08:39:46;38.00;;;14.47;;
18200;SDS011;9226;47.858;9.594;2022-12-16T08:42:30;36.77;;;13.63;;
18200;SDS011;9226;47.858;9.594;2022-12-16T08:45:14;32.17;;;12.90;;
18200;SDS011;9226;47.858;9.594;2022-12-16T08:47:58;34.80;;;14.30;;
18200;SDS011;9226;47.858;9.594;2022-12-16T08:50:43;39.67;;;14.33;;
18200;SDS011;9226;47.858;9.594;2022-12-16T08:53:28;40.30;;;15.40;;
18200;SDS011;9226;47.858;9.594;2022-12-16T08:56:12;34.87;;;14.00;;
18200;SDS011;9226;47.858;9.594;2022-12-16T08:58:56;41.90;;;14.20;;
18200;SDS011;9226;47.858;9.594;2022-12-16T09:01:40;37.73;;;14.40;;
18200;SDS011;9226;47.858;9.594;2022-12-16T09:04:23;35.23;;;13.33;;
18200;SDS011;9226;47.858;9.594;2022-12-16T09:07:07;35.97;;;14.10;;
18200;SDS011;9226;47.858;9.594;2022-12-16T09:09:51;36.17;;;13.77;;
18200;SDS011;9226;47.858;9.594;2022-12-16T09:12:34;42.77;;;14.60;;
18200;SDS011;9226;47.858;9.594;2022-12-16T09:15:18;38.40;;;14.80;;
18200;SDS011;9226;47.858;9.594;2022-12-16T09:18:02;39.57;;;15.87;;
18200;SDS011;9226;47.858;9.594;2022-12-16T09:20:46;42.47;;;16.17;;
18200;SDS011;9226;47.858;9.594;2022-12-16T09:23:30;45.13;;;15.93;;
18200;SDS011;9226;47.858;9.594;2022-12-16T09:26:14;35.60;;;13.83;;
18200;SDS011;9226;47.858;9.594;2022-12-16T09:28:58;37.80;;;14.80;;
18200;SDS011;9226;47.858;9.594;2022-12-16T09:31:42;39.23;;;15.00;;
18200;SDS011;9226;47.858;9.594;2022-12-16T09:34:26;59.03;;;22.03;;
18200;SDS011;9226;47.858;9.594;2022-12-16T09:37:26;56.27;;;25.17;;
18200;SDS011;9226;47.858;9.594;2022-12-16T09:40:12;46.07;;;19.83;;
18200;SDS011;9226;47.858;9.594;2022-12-16T09:49:32;60.67;;;24.63;;
18200;SDS011;9226;47.858;9.594;2022-12-16T09:52:19;42.80;;;17.33;;
18200;SDS011;9226;47.858;9.594;2022-12-16T09:55:05;37.77;;;15.90;;
18200;SDS011;9226;47.858;9.594;2022-12-16T09:58:05;43.27;;;16.43;;
18200;SDS011;9226;47.858;9.594;2022-12-16T10:00:50;38.07;;;15.53;;
18200;SDS011;9226;47.858;9.594;2022-12-16T10:03:38;37.47;;;15.67;;
18200;SDS011;9226;47.858;9.594;2022-12-16T10:06:37;41.17;;;17.87;;
18200;SDS011;9226;47.858;9.594;2022-12-16T10:12:27;44.57;;;20.50;;
18200;SDS011;9226;47.858;9.594;2022-12-16T10:18:16;44.07;;;18.50;;
18200;SDS011;9226;47.858;9.594;2022-12-16T10:21:09;39.10;;;16.23;;
18200;SDS011;9226;47.858;9.594;2022-12-16T10:27:26;35.97;;;15.77;;
18200;SDS011;9226;47.858;9.594;2022-12-16T10:30:17;38.53;;;15.80;;
18200;SDS011;9226;47.858;9.594;2022-12-16T10:33:01;40.70;;;17.43;;
18200;SDS011;9226;47.858;9.594;2022-12-16T10:35:48;43.80;;;17.00;;
18200;SDS011;9226;47.858;9.594;2022-12-16T10:38:35;46.37;;;18.40;;
18200;SDS011;9226;47.858;9.594;2022-12-16T10:41:27;44.83;;;16.43;;
18200;SDS011;9226;47.858;9.594;2022-12-16T10:45:02;48.97;;;17.47;;
18200;SDS011;9226;47.858;9.594;2022-12-16T10:47:32;45.63;;;17.93;;
18200;SDS011;9226;47.858;9.594;2022-12-16T10:50:16;80.50;;;30.77;;
18200;SDS011;9226;47.858;9.594;2022-12-16T10:53:02;48.63;;;21.00;;
18200;SDS011;9226;47.858;9.594;2022-12-16T10:58:49;53.17;;;20.93;;
18200;SDS011;9226;47.858;9.594;2022-12-16T11:01:37;46.20;;;19.13;;
18200;SDS011;9226;47.858;9.594;2022-12-16T11:07:25;50.70;;;20.97;;
18200;SDS011;9226;47.858;9.594;2022-12-16T11:10:26;50.07;;;18.80;;
18200;SDS011;9226;47.858;9.594;2022-12-16T11:16:13;49.77;;;20.13;;
18200;SDS011;9226;47.858;9.594;2022-12-16T11:22:20;54.57;;;22.57;;
18200;SDS011;9226;47.858;9.594;2022-12-16T11:25:12;49.77;;;20.93;;
18200;SDS011;9226;47.858;9.594;2022-12-16T11:28:03;43.33;;;19.60;;
18200;SDS011;9226;47.858;9.594;2022-12-16T11:30:51;45.27;;;17.53;;
18200;SDS011;9226;47.858;9.594;2022-12-16T11:33:38;41.23;;;16.13;;
18200;SDS011;9226;47.858;9.594;2022-12-16T11:36:22;41.83;;;16.40;;
18200;SDS011;9226;47.858;9.594;2022-12-16T11:39:12;41.03;;;17.07;;
18200;SDS011;9226;47.858;9.594;2022-12-16T11:42:02;41.30;;;18.17;;
18200;SDS011;9226;47.858;9.594;2022-12-16T11:44:57;41.53;;;17.33;;
18200;SDS011;9226;47.858;9.594;2022-12-16T11:50:38;51.23;;;18.03;;
18200;SDS011;9226;47.858;9.594;2022-12-16T11:56:24;44.63;;;19.03;;
18200;SDS011;9226;47.858;9.594;2022-12-16T12:02:22;41.40;;;18.23;;
18200;SDS011;9226;47.858;9.594;2022-12-16T12:05:13;39.70;;;17.37;;
18200;SDS011;9226;47.858;9.594;2022-12-16T12:08:04;49.97;;;19.73;;
18200;SDS011;9226;47.858;9.594;2022-12-16T12:14:35;65.13;;;24.37;;
18200;SDS011;9226;47.858;9.594;2022-12-16T12:17:31;66.73;;;24.90;;
18200;SDS011;9226;47.858;9.594;2022-12-16T12:23:32;52.73;;;22.10;;
18200;SDS011;9226;47.858;9.594;2022-12-16T12:26:31;51.00;;;21.10;;
18200;SDS011;9226;47.858;9.594;2022-12-16T12:29:36;84.00;;;31.20;;
18200;SDS011;9226;47.858;9.594;2022-12-16T12:38:51;51.00;;;22.23;;
18200;SDS011;9226;47.858;9.594;2022-12-16T12:51:35;62.33;;;24.23;;
18200;SDS011;9226;47.858;9.594;2022-12-16T12:57:19;54.73;;;23.37;;
18200;SDS011;9226;47.858;9.594;2022-12-16T13:03:08;151.43;;;43.30;;
18200;SDS011;9226;47.858;9.594;2022-12-16T13:06:00;167.00;;;46.40;;
18200;SDS011;9226;47.858;9.594;2022-12-16T13:11:33;44.37;;;19.67;;
18200;SDS011;9226;47.858;9.594;2022-12-16T13:17:23;41.23;;;17.57;;
18200;SDS011;9226;47.858;9.594;2022-12-16T13:26:16;45.27;;;20.17;;
18200;SDS011;9226;47.858;9.594;2022-12-16T13:32:00;74.20;;;27.47;;
18200;SDS011;9226;47.858;9.594;2022-12-16T13:35:36;45.10;;;17.83;;
18200;SDS011;9226;47.858;9.594;2022-12-16T13:38:02;44.03;;;17.53;;
18200;SDS011;9226;47.858;9.594;2022-12-16T13:43:52;42.27;;;16.60;;
18200;SDS011;9226;47.858;9.594;2022-12-16T13:46:42;36.40;;;14.97;;
18200;SDS011;9226;47.858;9.594;2022-12-16T13:53:04;46.60;;;18.60;;
18200;SDS011;9226;47.858;9.594;2022-12-16T13:55:29;47.40;;;19.27;;
18200;SDS011;9226;47.858;9.594;2022-12-16T14:01:23;41.10;;;15.93;;
18200;SDS011;9226;47.858;9.594;2022-12-16T14:04:26;51.77;;;15.50;;
18200;SDS011;9226;47.858;9.594;2022-12-16T14:07:15;36.30;;;14.60;;
18200;SDS011;9226;47.858;9.594;2022-12-16T14:10:00;40.63;;;15.87;;
18200;SDS011;9226;47.858;9.594;2022-12-16T14:13:05;35.73;;;14.77;;
18200;SDS011;9226;47.858;9.594;2022-12-16T14:19:19;42.50;;;16.60;;
18200;SDS011;9226;47.858;9.594;2022-12-16T14:25:28;39.50;;;15.53;;
18200;SDS011;9226;47.858;9.594;2022-12-16T14:31:16;41.30;;;16.03;;
18200;SDS011;9226;47.858;9.594;2022-12-16T14:34:04;42.87;;;15.63;;
18200;SDS011;9226;47.858;9.594;2022-12-16T14:36:58;43.00;;;15.47;;
18200;SDS011;9226;47.858;9.594;2022-12-16T14:39:42;42.70;;;16.60;;
18200;SDS011;9226;47.858;9.594;2022-12-16T14:42:27;41.03;;;15.10;;
18200;SDS011;9226;47.858;9.594;2022-12-16T14:48:12;49.43;;;16.77;;
18200;SDS011;9226;47.858;9.594;2022-12-16T14:51:23;42.53;;;15.43;;
18200;SDS011;9226;47.858;9.594;2022-12-16T14:57:15;42.07;;;15.50;;
18200;SDS011;9226;47.858;9.594;2022-12-16T15:00:02;35.30;;;13.10;;
18200;SDS011;9226;47.858;9.594;2022-12-16T15:02:49;38.93;;;13.90;;
18200;SDS011;9226;47.858;9.594;2022-12-16T15:05:37;34.53;;;13.77;;
18200;SDS011;9226;47.858;9.594;2022-12-16T15:08:23;42.20;;;14.43;;
18200;SDS011;9226;47.858;9.594;2022-12-16T15:11:09;40.33;;;13.80;;
18200;SDS011;9226;47.858;9.594;2022-12-16T15:13:56;37.67;;;14.07;;
18200;SDS011;9226;47.858;9.594;2022-12-16T15:16:44;35.87;;;11.43;;
18200;SDS011;9226;47.858;9.594;2022-12-16T15:19:36;36.77;;;13.93;;
18200;SDS011;9226;47.858;9.594;2022-12-16T15:22:25;38.40;;;13.77;;
18200;SDS011;9226;47.858;9.594;2022-12-16T15:25:17;34.87;;;13.83;;
18200;SDS011;9226;47.858;9.594;2022-12-16T15:28:03;32.00;;;12.50;;
18200;SDS011;9226;47.858;9.594;2022-12-16T15:31:40;31.87;;;11.13;;
18200;SDS011;9226;47.858;9.594;2022-12-16T15:37:02;34.63;;;12.10;;
18200;SDS011;9226;47.858;9.594;2022-12-16T15:39:46;32.57;;;11.60;;
18200;SDS011;9226;47.858;9.594;2022-12-16T15:42:31;31.33;;;12.00;;
18200;SDS011;9226;47.858;9.594;2022-12-16T15:45:29;37.73;;;12.77;;
18200;SDS011;9226;47.858;9.594;2022-12-16T15:51:03;37.57;;;12.03;;
18200;SDS011;9226;47.858;9.594;2022-12-16T15:54:03;42.30;;;13.43;;
18200;SDS011;9226;47.858;9.594;2022-12-16T15:56:47;33.90;;;11.93;;
18200;SDS011;9226;47.858;9.594;2022-12-16T15:59:33;34.37;;;12.63;;
18200;SDS011;9226;47.858;9.594;2022-12-16T16:05:18;66.47;;;19.97;;
18200;SDS011;9226;47.858;9.594;2022-12-16T16:08:04;47.40;;;16.83;;
18200;SDS011;9226;47.858;9.594;2022-12-16T16:10:49;49.57;;;18.73;;
18200;SDS011;9226;47.858;9.594;2022-12-16T16:13:37;49.00;;;15.83;;
18200;SDS011;9226;47.858;9.594;2022-12-16T16:16:21;39.97;;;13.73;;
18200;SDS011;9226;47.858;9.594;2022-12-16T16:19:09;41.50;;;13.77;;
18200;SDS011;9226;47.858;9.594;2022-12-16T16:21:57;31.93;;;11.83;;
18200;SDS011;9226;47.858;9.594;2022-12-16T16:24:41;32.23;;;12.07;;
18200;SDS011;9226;47.858;9.594;2022-12-16T16:27:24;31.37;;;11.77;;
18200;SDS011;9226;47.858;9.594;2022-12-16T16:30:10;35.23;;;13.53;;
18200;SDS011;9226;47.858;9.594;2022-12-16T16:32:55;33.13;;;12.30;;
18200;SDS011;9226;47.858;9.594;2022-12-16T16:35:38;35.30;;;12.87;;
18200;SDS011;9226;47.858;9.594;2022-12-16T16:38:23;34.57;;;12.03;;
18200;SDS011;9226;47.858;9.594;2022-12-16T16:41:10;33.73;;;12.60;;
18200;SDS011;9226;47.858;9.594;2022-12-16T16:43:57;33.80;;;12.57;;
18200;SDS011;9226;47.858;9.594;2022-12-16T16:46:42;30.07;;;10.93;;
18200;SDS011;9226;47.858;9.594;2022-12-16T16:49:38;34.23;;;11.27;;
18200;SDS011;9226;47.858;9.594;2022-12-16T16:52:24;33.13;;;12.10;;
18200;SDS011;9226;47.858;9.594;2022-12-16T16:55:13;31.10;;;11.77;;
18200;SDS011;9226;47.858;9.594;2022-12-16T16:57:59;29.70;;;11.70;;
18200;SDS011;9226;47.858;9.594;2022-12-16T17:00:43;31.93;;;13.00;;
18200;SDS011;9226;47.858;9.594;2022-12-16T17:03:27;36.97;;;13.33;;
18200;SDS011;9226;47.858;9.594;2022-12-16T17:06:11;36.97;;;13.13;;
18200;SDS011;9226;47.858;9.594;2022-12-16T17:08:55;36.70;;;13.60;;
18200;SDS011;9226;47.858;9.594;2022-12-16T17:11:39;35.23;;;12.47;;
18200;SDS011;9226;47.858;9.594;2022-12-16T17:14:24;35.37;;;12.90;;
18200;SDS011;9226;47.858;9.594;2022-12-16T17:17:08;33.07;;;13.30;;
18200;SDS011;9226;47.858;9.594;2022-12-16T17:19:52;41.87;;;13.47;;
18200;SDS011;9226;47.858;9.594;2022-12-16T17:22:36;34.20;;;12.30;;
18200;SDS011;9226;47.858;9.594;2022-12-16T17:25:22;38.13;;;12.63;;
18200;SDS011;9226;47.858;9.594;2022-12-16T17:28:06;36.70;;;12.47;;
18200;SDS011;9226;47.858;9.594;2022-12-16T17:30:52;35.83;;;12.73;;
18200;SDS011;9226;47.858;9.594;2022-12-16T17:33:36;40.43;;;13.53;;
18200;SDS011;9226;47.858;9.594;2022-12-16T17:36:33;34.07;;;12.90;;
18200;SDS011;9226;47.858;9.594;2022-12-16T17:39:17;36.67;;;12.40;;
18200;SDS011;9226;47.858;9.594;2022-12-16T17:42:06;39.17;;;13.30;;
18200;SDS011;9226;47.858;9.594;2022-12-16T17:44:50;37.73;;;15.03;;
18200;SDS011;9226;47.858;9.594;2022-12-16T17:47:34;42.67;;;14.63;;
18200;SDS011;9226;47.858;9.594;2022-12-16T17:50:18;41.80;;;14.03;;
18200;SDS011;9226;47.858;9.594;2022-12-16T17:53:02;39.93;;;14.47;;
18200;SDS011;9226;47.858;9.594;2022-12-16T17:55:46;44.23;;;13.23;;
18200;SDS011;9226;47.858;9.594;2022-12-16T17:58:31;37.70;;;14.47;;
18200;SDS011;9226;47.858;9.594;2022-12-16T18:01:16;41.33;;;14.90;;
18200;SDS011;9226;47.858;9.594;2022-12-16T18:04:01;45.60;;;15.50;;
18200;SDS011;9226;47.858;9.594;2022-12-16T18:06:45;39.57;;;14.93;;
18200;SDS011;9226;47.858;9.594;2022-12-16T18:09:29;42.87;;;15.13;;
18200;SDS011;9226;47.858;9.594;2022-12-16T18:12:15;39.90;;;15.70;;
18200;SDS011;9226;47.858;9.594;2022-12-16T18:14:59;49.20;;;17.70;;
18200;SDS011;9226;47.858;9.594;2022-12-16T18:17:43;40.00;;;15.00;;
18200;SDS011;9226;47.858;9.594;2022-12-16T18:20:31;47.00;;;16.13;;
18200;SDS011;9226;47.858;9.594;2022-12-16T18:23:29;36.60;;;14.50;;
18200;SDS011;9226;47.858;9.594;2022-12-16T18:26:13;50.00;;;19.10;;
18200;SDS011;9226;47.858;9.594;2022-12-16T18:28:57;52.93;;;19.40;;
18200;SDS011;9226;47.858;9.594;2022-12-16T18:31:41;71.13;;;28.07;;
18200;SDS011;9226;47.858;9.594;2022-12-16T18:34:25;49.70;;;20.07;;
18200;SDS011;9226;47.858;9.594;2022-12-16T18:37:10;49.13;;;18.47;;
18200;SDS011;9226;47.858;9.594;2022-12-16T18:39:55;48.53;;;17.23;;